createdAt,value
2023-08-04T00:02:42.659Z,98172.61
2023-08-04T00:07:44.712Z,98168.04
2023-08-04T00:12:47.642Z,98165.94
2023-08-04T00:17:49.562Z,98174.79
2023-08-04T00:22:51.610Z,98177.88
2023-08-04T00:27:53.392Z,98178.53
2023-08-04T00:32:55.358Z,98177.73
2023-08-04T00:37:57.312Z,98179.09
2023-08-04T00:42:59.890Z,98182.64
2023-08-04T00:48:03.192Z,98187.06
2023-08-04T00:53:06.253Z,98185.26
2023-08-04T00:58:08.084Z,98190.96
2023-08-04T01:03:10.502Z,98192.70
2023-08-04T01:08:35.163Z,98173.62
2023-08-04T01:13:40.153Z,98175.20
2023-08-04T01:18:41.986Z,98191.33
2023-08-04T01:23:43.906Z,98177.70
2023-08-04T01:28:46.671Z,98169.31
2023-08-04T01:33:49.762Z,98167.30
2023-08-04T01:38:54.586Z,98159.58
2023-08-04T01:43:56.491Z,98159.09
2023-08-04T01:49:00.421Z,98181.98
2023-08-04T01:54:02.429Z,98189.21
2023-08-04T01:59:04.246Z,98188.04
2023-08-04T02:04:06.084Z,98186.71
2023-08-04T02:09:08.288Z,98191.33
2023-08-04T02:14:10.705Z,98190.06
2023-08-04T02:19:12.780Z,98193.83
2023-08-04T02:24:14.762Z,98196.08
2023-08-04T02:29:18.635Z,98190.71
2023-08-04T02:34:20.546Z,98181.61
2023-08-04T02:39:22.522Z,98181.92
2023-08-04T02:44:24.456Z,98190.95
2023-08-04T02:49:26.418Z,98198.27
2023-08-04T02:54:28.265Z,98200.08
2023-08-04T02:59:30.178Z,98201.02
2023-08-04T03:04:32.002Z,98211.77
2023-08-04T03:09:33.812Z,98230.36
2023-08-04T03:14:35.630Z,98237.80
2023-08-04T03:19:37.461Z,98246.25
2023-08-04T03:24:39.316Z,98251.88
2023-08-04T03:29:41.243Z,98247.63
2023-08-04T03:34:43.112Z,98246.99
2023-08-04T03:39:44.904Z,98247.76
2023-08-04T03:44:46.727Z,98257.20
2023-08-04T03:49:49.231Z,98255.54
2023-08-04T03:54:51.449Z,98252.96
2023-08-04T03:59:54.647Z,98253.52
2023-08-04T04:07:31.037Z,98269.65
2023-08-04T04:12:34.129Z,98287.89
2023-08-04T04:17:36.233Z,98289.84
2023-08-04T04:22:37.426Z,98287.05
2023-08-04T04:27:38.509Z,98289.21
2023-08-04T04:32:39.685Z,98288.00
2023-08-04T04:37:40.799Z,98288.69
2023-08-04T04:42:41.943Z,98299.34
2023-08-04T04:47:43.203Z,98306.58
2023-08-04T04:52:44.503Z,98311.46
2023-08-04T04:57:45.637Z,98312.20
2023-08-04T05:02:46.860Z,98313.83
2023-08-04T05:07:48.284Z,98312.93
2023-08-04T05:12:49.387Z,98313.59
2023-08-04T05:17:50.599Z,98305.47
2023-08-04T05:22:51.819Z,98299.92
2023-08-04T05:27:52.913Z,98304.61
2023-08-04T05:32:54.062Z,98307.52
2023-08-04T05:37:55.246Z,98303.02
2023-08-04T05:42:57.889Z,98299.10
2023-08-04T05:47:59.038Z,98300.16
2023-08-04T05:53:00.557Z,98295.73
2023-08-04T05:58:01.949Z,98295.61
2023-08-04T06:03:04.854Z,98295.23
2023-08-04T06:08:06.157Z,98291.10
2023-08-04T06:13:07.604Z,98294.61
2023-08-04T06:18:08.814Z,98308.19
2023-08-04T06:23:11.646Z,98307.23
2023-08-04T06:28:13.108Z,98311.73
2023-08-04T06:33:14.334Z,98316.45
2023-08-04T06:38:15.689Z,98317.20
2023-08-04T06:43:16.938Z,98325.29
2023-08-04T06:48:20.692Z,98331.44
2023-08-04T06:53:21.871Z,98330.39
2023-08-04T06:58:23.011Z,98344.41
2023-08-04T07:03:24.506Z,98358.00
2023-08-04T07:08:25.689Z,98373.00
2023-08-04T07:13:29.820Z,98378.39
2023-08-04T07:18:31.034Z,98381.40
2023-08-04T07:23:32.127Z,98376.67
2023-08-04T07:28:34.683Z,98366.16
2023-08-04T07:33:36.950Z,98356.05
2023-08-04T07:38:38.817Z,98350.05
2023-08-04T07:43:39.984Z,98347.25
2023-08-04T07:48:41.503Z,98347.44
2023-08-04T07:53:42.956Z,98346.98
2023-08-04T07:58:44.490Z,98351.85
2023-08-04T08:03:45.734Z,98352.89
2023-08-04T08:08:47.214Z,98364.00
2023-08-04T08:13:48.479Z,98368.39
2023-08-04T08:18:49.630Z,98361.92
2023-08-04T08:23:50.726Z,98360.05
2023-08-04T08:28:51.860Z,98373.63
2023-08-04T08:33:52.977Z,98370.70
2023-08-04T08:38:54.497Z,98371.79
2023-08-04T08:43:55.862Z,98373.79
2023-08-04T08:48:59.194Z,98376.79
2023-08-04T08:54:01.140Z,98381.82
2023-08-04T08:59:03.330Z,98370.79
2023-08-04T09:04:06.367Z,98371.36
2023-08-04T09:09:08.426Z,98376.56
2023-08-04T09:14:09.667Z,98378.78
2023-08-04T09:19:10.944Z,98385.07
2023-08-04T09:24:13.817Z,98372.55
2023-08-04T09:29:15.304Z,98374.27
2023-08-04T09:34:16.877Z,98376.59
2023-08-04T09:39:18.119Z,98377.13
2023-08-04T09:44:19.213Z,98368.95
2023-08-04T09:49:21.409Z,98374.77
2023-08-04T09:54:22.738Z,98367.16
2023-08-04T09:59:25.116Z,98366.14
2023-08-04T10:04:27.213Z,98362.70
2023-08-04T10:09:30.623Z,98365.13
2023-08-04T10:14:31.728Z,98359.58
2023-08-04T10:19:34.317Z,98361.22
2023-08-04T10:24:37.906Z,98363.27
2023-08-04T10:29:40.984Z,98351.17
2023-08-04T10:34:43.941Z,98353.79
2023-08-04T10:39:57.364Z,98350.02
2023-08-04T10:45:06.879Z,98344.91
2023-08-04T10:50:18.652Z,98347.67
2023-08-04T10:55:19.870Z,98352.45
2023-08-04T11:00:23.725Z,98355.98
2023-08-04T11:05:25.833Z,98352.52
2023-08-04T11:10:27.078Z,98347.38
2023-08-04T11:15:28.557Z,98354.47
2023-08-04T11:20:33.339Z,98359.58
2023-08-04T11:25:36.296Z,98364.71
2023-08-04T11:30:37.671Z,98357.59
2023-08-04T11:35:38.833Z,98355.66
2023-08-04T11:40:58.294Z,98356.20
2023-08-04T11:46:04.643Z,98359.67
2023-08-04T11:51:08.407Z,98360.51
2023-08-04T11:56:24.740Z,98367.60
2023-08-04T12:01:34.416Z,98365.14
2023-08-04T12:06:36.676Z,98352.83
2023-08-04T12:11:48.637Z,98351.41
2023-08-04T12:16:57.832Z,98351.69
2023-08-04T12:22:04.448Z,98360.20
2023-08-04T12:27:05.752Z,98378.36
2023-08-04T12:32:07.760Z,98381.45
2023-08-04T12:37:09.124Z,98373.75
2023-08-04T12:42:10.383Z,98365.80
2023-08-04T12:47:12.100Z,98369.58
2023-08-04T12:52:13.893Z,98369.38
2023-08-04T12:57:15.166Z,98375.20
2023-08-04T13:02:16.477Z,98380.63
2023-08-04T13:07:17.932Z,98386.45
2023-08-04T13:12:19.089Z,98393.14
2023-08-04T13:17:20.219Z,98402.30
2023-08-04T13:22:21.531Z,98410.69
2023-08-04T13:27:22.688Z,98406.34
2023-08-04T13:32:23.917Z,98406.83
2023-08-04T13:37:27.197Z,98408.08
2023-08-04T13:42:28.404Z,98409.39
2023-08-04T13:47:29.632Z,98411.06
2023-08-04T13:52:30.924Z,98411.73
2023-08-04T13:57:41.109Z,98413.54
2023-08-04T14:02:43.487Z,98412.30
2023-08-04T14:07:44.800Z,98425.29
2023-08-04T14:12:45.964Z,98427.66
2023-08-04T14:17:47.457Z,98436.21
2023-08-04T14:22:49.186Z,98438.66
2023-08-04T14:27:50.479Z,98449.48
2023-08-04T14:32:51.845Z,98453.61
2023-08-04T14:37:53.050Z,98445.56
2023-08-04T14:42:54.207Z,98441.20
2023-08-04T14:47:55.392Z,98436.63
2023-08-04T14:52:56.671Z,98428.92
2023-08-04T14:57:57.858Z,98421.36
2023-08-04T15:03:00.454Z,98412.87
2023-08-04T15:08:01.943Z,98406.52
2023-08-04T15:13:03.305Z,98407.23
2023-08-04T15:18:04.564Z,98412.98
2023-08-04T15:23:05.971Z,98417.92
2023-08-04T15:28:07.238Z,98416.62
2023-08-04T15:33:08.355Z,98406.96
2023-08-04T15:38:09.722Z,98401.20
2023-08-04T15:43:12.648Z,98397.67
2023-08-04T15:48:13.815Z,98397.13
2023-08-04T15:53:15.906Z,98402.78
2023-08-04T15:58:17.052Z,98403.17
2023-08-04T16:03:18.276Z,98398.28
2023-08-04T16:08:19.700Z,98403.37
2023-08-04T16:13:20.821Z,98399.31
2023-08-04T16:18:21.993Z,98403.30
2023-08-04T16:23:23.141Z,98413.73
2023-08-04T16:28:27.843Z,98417.54
2023-08-04T16:33:31.417Z,98419.75
2023-08-04T16:38:32.544Z,98422.53
2023-08-04T16:43:33.809Z,98428.77
2023-08-04T16:48:34.986Z,98424.36
2023-08-04T16:53:36.183Z,98422.11
2023-08-04T16:58:37.363Z,98419.23
2023-08-04T17:03:38.788Z,98412.91
2023-08-04T17:08:40.366Z,98410.02
2023-08-04T17:13:44.275Z,98418.02
2023-08-04T17:18:46.223Z,98420.45
2023-08-04T17:23:47.649Z,98421.47
2023-08-04T17:28:48.776Z,98419.40
2023-08-04T17:33:50.058Z,98418.96
2023-08-04T17:38:51.303Z,98423.60
2023-08-04T17:43:52.578Z,98426.73
2023-08-04T17:48:53.769Z,98429.02
2023-08-04T17:53:54.889Z,98433.16
2023-08-04T17:58:56.034Z,98428.37
2023-08-04T18:03:57.245Z,98431.09
2023-08-04T18:08:58.411Z,98426.36
2023-08-04T18:13:59.641Z,98437.02
2023-08-04T18:19:00.837Z,98447.80
2023-08-04T18:24:03.630Z,98451.24
2023-08-04T18:29:04.789Z,98461.35
2023-08-04T18:34:06.033Z,98454.86
2023-08-04T18:39:08.011Z,98449.40
2023-08-04T18:44:09.770Z,98431.00
2023-08-04T18:49:10.907Z,98417.73
2023-08-04T18:54:11.988Z,98417.48
2023-08-04T18:59:13.139Z,98420.89
2023-08-04T19:04:14.859Z,98430.88
2023-08-04T19:09:16.099Z,98430.70
2023-08-04T19:14:18.074Z,98444.63
2023-08-04T19:19:19.265Z,98442.39
2023-08-04T19:24:20.426Z,98435.79
2023-08-04T19:29:21.876Z,98437.05
2023-08-04T19:34:23.130Z,98443.64
2023-08-04T19:39:24.807Z,98444.60
2023-08-04T19:44:26.035Z,98459.04
2023-08-04T19:49:28.530Z,98468.48
2023-08-04T19:54:30.588Z,98465.38
2023-08-04T19:59:31.944Z,98468.46
2023-08-04T20:04:33.188Z,98457.62
2023-08-04T20:09:35.407Z,98452.69
2023-08-04T20:14:36.660Z,98442.80
2023-08-04T20:19:38.401Z,98441.50
2023-08-04T20:24:39.669Z,98458.89
2023-08-04T20:29:40.824Z,98463.42
2023-08-04T20:34:42.073Z,98475.29
2023-08-04T20:39:43.234Z,98482.15
2023-08-04T20:44:46.037Z,98479.14
2023-08-04T20:49:47.164Z,98467.88
2023-08-04T20:54:48.353Z,98463.02
2023-08-04T20:59:49.593Z,98455.75
2023-08-04T21:04:50.790Z,98446.30
2023-08-04T21:09:58.293Z,98445.61
2023-08-04T21:14:59.984Z,98451.77
2023-08-04T21:20:02.452Z,98453.19
2023-08-04T21:25:03.710Z,98453.90
2023-08-04T21:30:06.026Z,98460.88
2023-08-04T21:35:07.807Z,98462.48
2023-08-04T21:40:09.319Z,98460.23
2023-08-04T21:45:10.512Z,98461.11
2023-08-04T21:50:12.081Z,98459.30
2023-08-04T21:55:13.352Z,98456.98
2023-08-04T22:00:22.491Z,98451.20
2023-08-04T22:05:23.759Z,98450.85
2023-08-04T22:10:24.853Z,98445.63
2023-08-04T22:15:26.000Z,98434.29
2023-08-04T22:20:27.708Z,98438.91
2023-08-04T22:25:28.827Z,98433.14
2023-08-04T22:30:29.988Z,98425.90
2023-08-04T22:35:31.126Z,98424.69
2023-08-04T22:40:32.281Z,98436.22
2023-08-04T22:45:33.656Z,98428.05
2023-08-04T22:50:35.188Z,98433.81
2023-08-04T22:55:38.145Z,98426.14
2023-08-04T23:00:39.439Z,98412.03
2023-08-04T23:05:41.366Z,98406.81
2023-08-04T23:10:42.552Z,98401.77
2023-08-04T23:15:43.847Z,98404.91
2023-08-04T23:20:49.044Z,98404.92
2023-08-04T23:25:50.186Z,98397.59
2023-08-04T23:30:55.306Z,98382.91
2023-08-04T23:35:56.966Z,98377.88
2023-08-04T23:41:02.485Z,98375.46
2023-08-04T23:46:03.872Z,98387.67
2023-08-04T23:51:07.878Z,98396.39
2023-08-04T23:56:09.107Z,98396.89
